sensor_id;sensor_type;location;lat;lon;timestamp;temperature;humidity
44863;DHT22;30597;49.628;10.850;2023-04-24T00:00:28;23.10;50.60
44863;DHT22;30597;49.628;10.850;2023-04-24T00:02:54;23.10;50.50
44863;DHT22;30597;49.628;10.850;2023-04-24T00:05:22;23.10;50.50
44863;DHT22;30597;49.628;10.850;2023-04-24T00:07:48;23.10;50.60
44863;DHT22;30597;49.628;10.850;2023-04-24T00:10:14;23.00;50.50
44863;DHT22;30597;49.628;10.850;2023-04-24T00:12:39;23.00;50.60
44863;DHT22;30597;49.628;10.850;2023-04-24T00:15:05;23.00;50.70
44863;DHT22;30597;49.628;10.850;2023-04-24T00:17:31;23.00;50.70
44863;DHT22;30597;49.628;10.850;2023-04-24T00:19:57;23.00;50.70
44863;DHT22;30597;49.628;10.850;2023-04-24T00:22:27;23.10;51.00
44863;DHT22;30597;49.628;10.850;2023-04-24T00:24:53;23.00;50.90
44863;DHT22;30597;49.628;10.850;2023-04-24T00:27:19;23.00;50.90
44863;DHT22;30597;49.628;10.850;2023-04-24T00:29:45;23.00;51.00
44863;DHT22;30597;49.628;10.850;2023-04-24T00:32:10;23.00;51.00
44863;DHT22;30597;49.628;10.850;2023-04-24T00:34:36;22.90;51.10
44863;DHT22;30597;49.628;10.850;2023-04-24T00:37:02;23.00;51.40
44863;DHT22;30597;49.628;10.850;2023-04-24T00:39:27;22.90;51.20
44863;DHT22;30597;49.628;10.850;2023-04-24T00:41:53;23.00;51.40
44863;DHT22;30597;49.628;10.850;2023-04-24T00:44:19;22.90;51.60
44863;DHT22;30597;49.628;10.850;2023-04-24T00:46:47;23.00;51.70
44863;DHT22;30597;49.628;10.850;2023-04-24T00:49:18;23.00;51.80
44863;DHT22;30597;49.628;10.850;2023-04-24T00:51:43;23.00;51.80
44863;DHT22;30597;49.628;10.850;2023-04-24T00:54:11;23.00;51.60
44863;DHT22;30597;49.628;10.850;2023-04-24T00:56:37;23.00;51.60
44863;DHT22;30597;49.628;10.850;2023-04-24T00:59:03;23.10;51.50
44863;DHT22;30597;49.628;10.850;2023-04-24T01:01:29;23.00;51.60
44863;DHT22;30597;49.628;10.850;2023-04-24T01:03:56;23.00;51.40
44863;DHT22;30597;49.628;10.850;2023-04-24T01:06:23;23.00;51.50
44863;DHT22;30597;49.628;10.850;2023-04-24T01:08:52;23.00;51.50
44863;DHT22;30597;49.628;10.850;2023-04-24T01:11:18;23.00;51.50
44863;DHT22;30597;49.628;10.850;2023-04-24T01:13:44;22.90;51.40
44863;DHT22;30597;49.628;10.850;2023-04-24T01:16:11;22.90;51.50
44863;DHT22;30597;49.628;10.850;2023-04-24T01:18:37;23.00;51.60
44863;DHT22;30597;49.628;10.850;2023-04-24T01:21:04;22.90;51.60
44863;DHT22;30597;49.628;10.850;2023-04-24T01:23:30;22.90;51.70
44863;DHT22;30597;49.628;10.850;2023-04-24T01:25:56;22.90;51.80
44863;DHT22;30597;49.628;10.850;2023-04-24T01:28:22;22.80;51.70
44863;DHT22;30597;49.628;10.850;2023-04-24T01:30:48;22.90;51.90
44863;DHT22;30597;49.628;10.850;2023-04-24T01:33:14;22.80;51.80
44863;DHT22;30597;49.628;10.850;2023-04-24T01:35:40;22.80;51.70
44863;DHT22;30597;49.628;10.850;2023-04-24T01:38:05;22.80;51.70
44863;DHT22;30597;49.628;10.850;2023-04-24T01:40:32;22.90;51.80
44863;DHT22;30597;49.628;10.850;2023-04-24T01:42:58;22.80;51.60
44863;DHT22;30597;49.628;10.850;2023-04-24T01:45:24;22.80;51.60
44863;DHT22;30597;49.628;10.850;2023-04-24T01:47:50;22.80;52.20
44863;DHT22;30597;49.628;10.850;2023-04-24T01:50:16;22.80;51.60
44863;DHT22;30597;49.628;10.850;2023-04-24T01:52:42;22.80;51.70
44863;DHT22;30597;49.628;10.850;2023-04-24T01:55:08;22.80;52.30
44863;DHT22;30597;49.628;10.850;2023-04-24T01:57:34;22.80;52.30
44863;DHT22;30597;49.628;10.850;2023-04-24T02:00:00;22.80;51.70
44863;DHT22;30597;49.628;10.850;2023-04-24T02:02:26;22.80;51.70
44863;DHT22;30597;49.628;10.850;2023-04-24T02:04:55;22.80;51.70
44863;DHT22;30597;49.628;10.850;2023-04-24T02:07:21;22.80;51.70
44863;DHT22;30597;49.628;10.850;2023-04-24T02:09:46;22.80;51.70
44863;DHT22;30597;49.628;10.850;2023-04-24T02:12:12;22.80;51.80
44863;DHT22;30597;49.628;10.850;2023-04-24T02:14:37;22.80;51.70
44863;DHT22;30597;49.628;10.850;2023-04-24T02:17:03;22.80;51.80
44863;DHT22;30597;49.628;10.850;2023-04-24T02:19:30;22.70;51.80
44863;DHT22;30597;49.628;10.850;2023-04-24T02:21:56;22.80;52.10
44863;DHT22;30597;49.628;10.850;2023-04-24T02:24:21;22.80;51.90
44863;DHT22;30597;49.628;10.850;2023-04-24T02:26:47;22.90;52.00
44863;DHT22;30597;49.628;10.850;2023-04-24T02:29:12;22.80;51.90
44863;DHT22;30597;49.628;10.850;2023-04-24T02:31:38;22.80;51.90
44863;DHT22;30597;49.628;10.850;2023-04-24T02:34:03;22.80;52.00
44863;DHT22;30597;49.628;10.850;2023-04-24T02:36:29;22.80;52.00
44863;DHT22;30597;49.628;10.850;2023-04-24T02:38:55;22.80;52.00
44863;DHT22;30597;49.628;10.850;2023-04-24T02:41:21;22.80;52.00
44863;DHT22;30597;49.628;10.850;2023-04-24T02:43:46;22.80;52.00
44863;DHT22;30597;49.628;10.850;2023-04-24T02:46:12;22.80;52.00
44863;DHT22;30597;49.628;10.850;2023-04-24T02:48:37;22.70;52.00
44863;DHT22;30597;49.628;10.850;2023-04-24T02:51:03;22.80;52.00
44863;DHT22;30597;49.628;10.850;2023-04-24T02:53:29;22.80;52.00
44863;DHT22;30597;49.628;10.850;2023-04-24T02:55:55;22.70;52.00
44863;DHT22;30597;49.628;10.850;2023-04-24T02:58:21;22.80;52.10
44863;DHT22;30597;49.628;10.850;2023-04-24T03:00:47;22.70;52.10
44863;DHT22;30597;49.628;10.850;2023-04-24T03:03:13;22.70;52.20
44863;DHT22;30597;49.628;10.850;2023-04-24T03:05:41;22.70;52.10
44863;DHT22;30597;49.628;10.850;2023-04-24T03:08:06;22.70;52.20
44863;DHT22;30597;49.628;10.850;2023-04-24T03:10:32;22.60;52.10
44863;DHT22;30597;49.628;10.850;2023-04-24T03:12:57;22.70;52.20
44863;DHT22;30597;49.628;10.850;2023-04-24T03:15:23;22.60;52.20
44863;DHT22;30597;49.628;10.850;2023-04-24T03:17:49;22.70;52.20
44863;DHT22;30597;49.628;10.850;2023-04-24T03:20:14;22.60;52.20
44863;DHT22;30597;49.628;10.850;2023-04-24T03:22:40;22.60;52.30
44863;DHT22;30597;49.628;10.850;2023-04-24T03:25:06;22.60;52.30
44863;DHT22;30597;49.628;10.850;2023-04-24T03:27:31;22.60;52.30
44863;DHT22;30597;49.628;10.850;2023-04-24T03:29:57;22.60;52.30
44863;DHT22;30597;49.628;10.850;2023-04-24T03:32:23;22.60;52.30
44863;DHT22;30597;49.628;10.850;2023-04-24T03:34:49;22.60;52.40
44863;DHT22;30597;49.628;10.850;2023-04-24T03:37:16;22.60;52.50
44863;DHT22;30597;49.628;10.850;2023-04-24T03:39:41;22.60;52.70
44863;DHT22;30597;49.628;10.850;2023-04-24T03:42:07;22.60;52.60
44863;DHT22;30597;49.628;10.850;2023-04-24T03:44:34;22.60;52.60
44863;DHT22;30597;49.628;10.850;2023-04-24T03:46:59;22.60;52.50
44863;DHT22;30597;49.628;10.850;2023-04-24T03:49:25;22.60;52.60
44863;DHT22;30597;49.628;10.850;2023-04-24T03:51:51;22.60;52.50
44863;DHT22;30597;49.628;10.850;2023-04-24T03:54:18;22.60;52.40
44863;DHT22;30597;49.628;10.850;2023-04-24T03:56:44;22.60;52.50
44863;DHT22;30597;49.628;10.850;2023-04-24T03:59:09;22.60;52.50
44863;DHT22;30597;49.628;10.850;2023-04-24T04:01:35;22.60;52.50
44863;DHT22;30597;49.628;10.850;2023-04-24T04:04:07;22.50;52.60
44863;DHT22;30597;49.628;10.850;2023-04-24T04:06:33;22.50;52.60
44863;DHT22;30597;49.628;10.850;2023-04-24T04:08:59;22.50;52.60
44863;DHT22;30597;49.628;10.850;2023-04-24T04:11:25;22.50;52.60
44863;DHT22;30597;49.628;10.850;2023-04-24T04:13:51;22.50;52.60
44863;DHT22;30597;49.628;10.850;2023-04-24T04:16:18;22.50;52.60
44863;DHT22;30597;49.628;10.850;2023-04-24T04:18:43;22.50;52.60
44863;DHT22;30597;49.628;10.850;2023-04-24T04:21:09;22.50;52.60
44863;DHT22;30597;49.628;10.850;2023-04-24T04:23:35;22.50;52.80
44863;DHT22;30597;49.628;10.850;2023-04-24T04:26:01;22.50;52.70
44863;DHT22;30597;49.628;10.850;2023-04-24T04:28:27;22.50;52.70
44863;DHT22;30597;49.628;10.850;2023-04-24T04:30:53;22.50;52.70
44863;DHT22;30597;49.628;10.850;2023-04-24T04:33:23;22.50;52.70
44863;DHT22;30597;49.628;10.850;2023-04-24T04:35:48;22.50;52.80
44863;DHT22;30597;49.628;10.850;2023-04-24T04:38:15;22.50;52.80
44863;DHT22;30597;49.628;10.850;2023-04-24T04:40:42;22.50;52.90
44863;DHT22;30597;49.628;10.850;2023-04-24T04:43:08;22.50;52.90
44863;DHT22;30597;49.628;10.850;2023-04-24T04:45:33;22.50;52.90
44863;DHT22;30597;49.628;10.850;2023-04-24T04:48:00;22.40;52.70
44863;DHT22;30597;49.628;10.850;2023-04-24T04:50:27;22.40;52.80
44863;DHT22;30597;49.628;10.850;2023-04-24T04:52:52;22.40;53.40
44863;DHT22;30597;49.628;10.850;2023-04-24T04:55:18;22.40;52.70
44863;DHT22;30597;49.628;10.850;2023-04-24T04:57:45;22.40;52.60
44863;DHT22;30597;49.628;10.850;2023-04-24T05:00:14;22.40;52.80
44863;DHT22;30597;49.628;10.850;2023-04-24T05:02:39;22.40;52.80
44863;DHT22;30597;49.628;10.850;2023-04-24T05:05:06;22.40;52.80
44863;DHT22;30597;49.628;10.850;2023-04-24T05:07:33;22.40;52.90
44863;DHT22;30597;49.628;10.850;2023-04-24T05:09:58;22.40;52.80
44863;DHT22;30597;49.628;10.850;2023-04-24T05:12:24;22.40;53.00
44863;DHT22;30597;49.628;10.850;2023-04-24T05:14:50;22.40;53.00
44863;DHT22;30597;49.628;10.850;2023-04-24T05:17:16;22.40;53.10
44863;DHT22;30597;49.628;10.850;2023-04-24T05:19:42;22.40;53.00
44863;DHT22;30597;49.628;10.850;2023-04-24T05:22:08;22.50;53.10
44863;DHT22;30597;49.628;10.850;2023-04-24T05:24:35;22.50;53.00
44863;DHT22;30597;49.628;10.850;2023-04-24T05:27:03;22.50;53.00
44863;DHT22;30597;49.628;10.850;2023-04-24T05:29:32;22.60;53.00
44863;DHT22;30597;49.628;10.850;2023-04-24T05:31:58;22.50;52.90
44863;DHT22;30597;49.628;10.850;2023-04-24T05:34:24;22.60;53.00
44863;DHT22;30597;49.628;10.850;2023-04-24T05:36:50;22.50;52.40
44863;DHT22;30597;49.628;10.850;2023-04-24T05:39:16;22.50;52.50
44863;DHT22;30597;49.628;10.850;2023-04-24T05:41:41;22.60;52.50
44863;DHT22;30597;49.628;10.850;2023-04-24T05:44:07;22.60;52.50
44863;DHT22;30597;49.628;10.850;2023-04-24T05:46:32;22.70;52.60
44863;DHT22;30597;49.628;10.850;2023-04-24T05:48:58;22.60;52.10
44863;DHT22;30597;49.628;10.850;2023-04-24T05:51:24;22.70;51.90
44863;DHT22;30597;49.628;10.850;2023-04-24T05:53:49;22.80;51.30
44863;DHT22;30597;49.628;10.850;2023-04-24T05:56:15;22.70;50.80
44863;DHT22;30597;49.628;10.850;2023-04-24T05:58:41;22.70;50.80
44863;DHT22;30597;49.628;10.850;2023-04-24T06:01:09;22.70;50.70
44863;DHT22;30597;49.628;10.850;2023-04-24T06:03:35;22.70;50.90
44863;DHT22;30597;49.628;10.850;2023-04-24T06:06:00;22.70;50.90
44863;DHT22;30597;49.628;10.850;2023-04-24T06:08:26;22.70;51.00
44863;DHT22;30597;49.628;10.850;2023-04-24T06:10:52;22.70;50.80
44863;DHT22;30597;49.628;10.850;2023-04-24T06:13:17;22.80;50.80
44863;DHT22;30597;49.628;10.850;2023-04-24T06:15:43;22.80;51.00
44863;DHT22;30597;49.628;10.850;2023-04-24T06:18:09;23.00;51.30
44863;DHT22;30597;49.628;10.850;2023-04-24T06:20:38;23.10;51.30
44863;DHT22;30597;49.628;10.850;2023-04-24T06:23:03;23.10;51.20
44863;DHT22;30597;49.628;10.850;2023-04-24T06:25:29;23.20;51.10
44863;DHT22;30597;49.628;10.850;2023-04-24T06:27:55;23.30;51.20
44863;DHT22;30597;49.628;10.850;2023-04-24T06:30:21;23.30;51.50
44863;DHT22;30597;49.628;10.850;2023-04-24T06:32:46;23.40;51.00
44863;DHT22;30597;49.628;10.850;2023-04-24T06:35:12;23.40;50.90
44863;DHT22;30597;49.628;10.850;2023-04-24T06:37:42;23.40;50.90
44863;DHT22;30597;49.628;10.850;2023-04-24T06:40:08;23.50;51.10
44863;DHT22;30597;49.628;10.850;2023-04-24T06:42:33;23.50;51.10
44863;DHT22;30597;49.628;10.850;2023-04-24T06:45:00;23.50;51.10
44863;DHT22;30597;49.628;10.850;2023-04-24T06:47:26;23.50;51.10
44863;DHT22;30597;49.628;10.850;2023-04-24T06:49:52;23.50;51.00
44863;DHT22;30597;49.628;10.850;2023-04-24T06:52:18;23.50;51.10
44863;DHT22;30597;49.628;10.850;2023-04-24T06:54:43;23.50;51.10
44863;DHT22;30597;49.628;10.850;2023-04-24T06:57:09;23.60;51.10
44863;DHT22;30597;49.628;10.850;2023-04-24T06:59:36;23.60;51.20
44863;DHT22;30597;49.628;10.850;2023-04-24T07:02:02;23.60;51.20
44863;DHT22;30597;49.628;10.850;2023-04-24T07:04:28;23.50;51.00
44863;DHT22;30597;49.628;10.850;2023-04-24T07:06:54;23.60;51.10
44863;DHT22;30597;49.628;10.850;2023-04-24T07:09:22;23.60;51.10
44863;DHT22;30597;49.628;10.850;2023-04-24T07:11:49;23.60;51.10
44863;DHT22;30597;49.628;10.850;2023-04-24T07:14:15;23.50;50.80
44863;DHT22;30597;49.628;10.850;2023-04-24T07:16:42;23.50;50.90
44863;DHT22;30597;49.628;10.850;2023-04-24T07:19:09;23.60;50.90
44863;DHT22;30597;49.628;10.850;2023-04-24T07:21:35;23.50;50.90
44863;DHT22;30597;49.628;10.850;2023-04-24T07:24:00;23.40;50.30
44863;DHT22;30597;49.628;10.850;2023-04-24T07:26:29;23.40;50.70
44863;DHT22;30597;49.628;10.850;2023-04-24T07:28:55;23.30;50.80
44863;DHT22;30597;49.628;10.850;2023-04-24T07:31:21;23.40;50.80
44863;DHT22;30597;49.628;10.850;2023-04-24T07:33:47;23.30;51.20
44863;DHT22;30597;49.628;10.850;2023-04-24T07:36:12;23.40;51.20
44863;DHT22;30597;49.628;10.850;2023-04-24T07:38:45;23.40;51.30
44863;DHT22;30597;49.628;10.850;2023-04-24T07:41:12;23.40;51.20
44863;DHT22;30597;49.628;10.850;2023-04-24T07:43:38;23.40;51.10
44863;DHT22;30597;49.628;10.850;2023-04-24T07:46:03;23.50;51.20
44863;DHT22;30597;49.628;10.850;2023-04-24T07:48:29;23.40;51.00
44863;DHT22;30597;49.628;10.850;2023-04-24T07:50:54;23.40;51.00
44863;DHT22;30597;49.628;10.850;2023-04-24T07:53:20;23.40;51.10
44863;DHT22;30597;49.628;10.850;2023-04-24T07:55:46;23.40;51.00
44863;DHT22;30597;49.628;10.850;2023-04-24T07:58:11;23.40;50.90
44863;DHT22;30597;49.628;10.850;2023-04-24T08:00:37;23.50;51.10
44863;DHT22;30597;49.628;10.850;2023-04-24T08:03:03;23.40;51.00
44863;DHT22;30597;49.628;10.850;2023-04-24T08:05:28;23.40;51.00
44863;DHT22;30597;49.628;10.850;2023-04-24T08:07:54;23.40;51.00
44863;DHT22;30597;49.628;10.850;2023-04-24T08:10:24;23.40;50.90
44863;DHT22;30597;49.628;10.850;2023-04-24T08:12:50;23.40;51.10
44863;DHT22;30597;49.628;10.850;2023-04-24T08:15:16;23.40;50.80
44863;DHT22;30597;49.628;10.850;2023-04-24T08:17:42;23.40;50.30
44863;DHT22;30597;49.628;10.850;2023-04-24T18:36:22;22.80;45.80
44863;DHT22;30597;49.628;10.850;2023-04-24T18:38:47;22.80;45.90
44863;DHT22;30597;49.628;10.850;2023-04-24T18:41:13;22.80;46.20
44863;DHT22;30597;49.628;10.850;2023-04-24T18:43:38;22.80;46.20
44863;DHT22;30597;49.628;10.850;2023-04-24T18:46:04;22.90;46.40
44863;DHT22;30597;49.628;10.850;2023-04-24T18:48:29;22.90;46.50
44863;DHT22;30597;49.628;10.850;2023-04-24T18:50:56;23.00;46.50
44863;DHT22;30597;49.628;10.850;2023-04-24T18:53:21;23.00;46.70
44863;DHT22;30597;49.628;10.850;2023-04-24T18:55:47;23.10;46.70
44863;DHT22;30597;49.628;10.850;2023-04-24T18:58:12;23.10;46.70
44863;DHT22;30597;49.628;10.850;2023-04-24T19:00:39;23.10;46.80
44863;DHT22;30597;49.628;10.850;2023-04-24T19:03:05;23.20;46.90
44863;DHT22;30597;49.628;10.850;2023-04-24T19:05:32;23.20;47.00
44863;DHT22;30597;49.628;10.850;2023-04-24T19:07:58;23.20;46.90
44863;DHT22;30597;49.628;10.850;2023-04-24T19:10:24;23.20;47.00
44863;DHT22;30597;49.628;10.850;2023-04-24T19:12:50;23.20;47.00
44863;DHT22;30597;49.628;10.850;2023-04-24T19:15:23;23.20;47.20
44863;DHT22;30597;49.628;10.850;2023-04-24T19:17:49;23.20;47.20
44863;DHT22;30597;49.628;10.850;2023-04-24T19:20:19;23.20;47.30
44863;DHT22;30597;49.628;10.850;2023-04-24T19:22:45;23.10;47.20
44863;DHT22;30597;49.628;10.850;2023-04-24T19:25:11;23.10;47.20
44863;DHT22;30597;49.628;10.850;2023-04-24T19:27:37;23.10;47.30
44863;DHT22;30597;49.628;10.850;2023-04-24T19:30:03;23.10;48.00
44863;DHT22;30597;49.628;10.850;2023-04-24T19:32:29;23.00;47.60
44863;DHT22;30597;49.628;10.850;2023-04-24T19:34:54;23.10;47.70
44863;DHT22;30597;49.628;10.850;2023-04-24T19:37:20;23.00;47.60
44863;DHT22;30597;49.628;10.850;2023-04-24T19:39:46;23.00;47.70
44863;DHT22;30597;49.628;10.850;2023-04-24T19:42:11;23.00;47.80
44863;DHT22;30597;49.628;10.850;2023-04-24T19:44:37;23.00;48.00
44863;DHT22;30597;49.628;10.850;2023-04-24T19:47:03;22.90;47.90
44863;DHT22;30597;49.628;10.850;2023-04-24T19:49:29;23.00;48.00
44863;DHT22;30597;49.628;10.850;2023-04-24T19:51:54;22.90;46.80
44863;DHT22;30597;49.628;10.850;2023-04-24T19:54:20;22.90;47.00
44863;DHT22;30597;49.628;10.850;2023-04-24T19:56:46;22.80;47.30
44863;DHT22;30597;49.628;10.850;2023-04-24T19:59:12;22.80;47.50
44863;DHT22;30597;49.628;10.850;2023-04-24T20:01:37;22.80;47.60
44863;DHT22;30597;49.628;10.850;2023-04-24T20:04:04;22.70;47.80
44863;DHT22;30597;49.628;10.850;2023-04-24T20:06:32;22.70;48.10
44863;DHT22;30597;49.628;10.850;2023-04-24T20:08:58;22.70;48.20
44863;DHT22;30597;49.628;10.850;2023-04-24T20:11:23;22.70;48.30
44863;DHT22;30597;49.628;10.850;2023-04-24T20:13:49;22.70;48.40
44863;DHT22;30597;49.628;10.850;2023-04-24T20:16:15;22.70;48.60
44863;DHT22;30597;49.628;10.850;2023-04-24T20:18:41;22.70;48.70
44863;DHT22;30597;49.628;10.850;2023-04-24T20:21:07;22.60;48.70
44863;DHT22;30597;49.628;10.850;2023-04-24T20:23:33;22.60;48.90
44863;DHT22;30597;49.628;10.850;2023-04-24T20:26:02;22.60;49.00
44863;DHT22;30597;49.628;10.850;2023-04-24T20:28:29;22.60;49.10
44863;DHT22;30597;49.628;10.850;2023-04-24T20:30:56;22.60;49.20
44863;DHT22;30597;49.628;10.850;2023-04-24T20:33:21;22.50;49.20
44863;DHT22;30597;49.628;10.850;2023-04-24T20:35:48;22.60;49.00
44863;DHT22;30597;49.628;10.850;2023-04-24T20:38:14;22.60;49.20
44863;DHT22;30597;49.628;10.850;2023-04-24T20:40:40;22.50;49.20
44863;DHT22;30597;49.628;10.850;2023-04-24T20:43:06;22.50;49.20
44863;DHT22;30597;49.628;10.850;2023-04-24T20:45:33;22.50;49.30
44863;DHT22;30597;49.628;10.850;2023-04-24T20:47:58;22.40;49.30
44863;DHT22;30597;49.628;10.850;2023-04-24T20:50:24;22.40;49.30
44863;DHT22;30597;49.628;10.850;2023-04-24T20:52:50;22.40;49.50
44863;DHT22;30597;49.628;10.850;2023-04-24T20:55:15;22.40;49.50
44863;DHT22;30597;49.628;10.850;2023-04-24T20:57:41;22.40;49.60
44863;DHT22;30597;49.628;10.850;2023-04-24T21:00:07;22.40;49.60
44863;DHT22;30597;49.628;10.850;2023-04-24T21:02:35;22.40;49.80
44863;DHT22;30597;49.628;10.850;2023-04-24T21:05:00;22.40;50.00
44863;DHT22;30597;49.628;10.850;2023-04-24T21:07:26;22.30;49.90
44863;DHT22;30597;49.628;10.850;2023-04-24T21:09:51;22.30;50.10
44863;DHT22;30597;49.628;10.850;2023-04-24T21:12:17;22.30;50.20
44863;DHT22;30597;49.628;10.850;2023-04-24T21:14:42;22.30;50.20
44863;DHT22;30597;49.628;10.850;2023-04-24T21:17:08;22.30;50.50
44863;DHT22;30597;49.628;10.850;2023-04-24T21:19:34;22.30;50.60
44863;DHT22;30597;49.628;10.850;2023-04-24T21:21:59;22.30;50.60
44863;DHT22;30597;49.628;10.850;2023-04-24T21:24:25;22.30;50.60
44863;DHT22;30597;49.628;10.850;2023-04-24T21:26:50;22.30;50.70
44863;DHT22;30597;49.628;10.850;2023-04-24T21:29:16;22.30;50.70
44863;DHT22;30597;49.628;10.850;2023-04-24T21:31:42;22.30;50.70
44863;DHT22;30597;49.628;10.850;2023-04-24T21:34:07;22.30;50.80
44863;DHT22;30597;49.628;10.850;2023-04-24T21:36:33;22.30;50.90
44863;DHT22;30597;49.628;10.850;2023-04-24T21:38:58;22.30;50.90
44863;DHT22;30597;49.628;10.850;2023-04-24T21:41:24;22.30;51.00
44863;DHT22;30597;49.628;10.850;2023-04-24T21:43:50;22.30;51.00
44863;DHT22;30597;49.628;10.850;2023-04-24T21:46:16;22.30;50.90
44863;DHT22;30597;49.628;10.850;2023-04-24T21:48:41;22.30;51.10
44863;DHT22;30597;49.628;10.850;2023-04-24T21:51:07;22.30;51.20
44863;DHT22;30597;49.628;10.850;2023-04-24T21:53:33;22.30;51.00
44863;DHT22;30597;49.628;10.850;2023-04-24T21:55:58;22.30;51.00
44863;DHT22;30597;49.628;10.850;2023-04-24T21:58:24;22.30;51.20
44863;DHT22;30597;49.628;10.850;2023-04-24T22:00:50;22.30;51.30
44863;DHT22;30597;49.628;10.850;2023-04-24T22:03:15;22.20;51.50
44863;DHT22;30597;49.628;10.850;2023-04-24T22:05:41;22.30;51.80
44863;DHT22;30597;49.628;10.850;2023-04-24T22:08:06;22.30;51.70
44863;DHT22;30597;49.628;10.850;2023-04-24T22:10:32;22.30;51.70
44863;DHT22;30597;49.628;10.850;2023-04-24T22:12:58;22.30;51.60
44863;DHT22;30597;49.628;10.850;2023-04-24T22:15:23;22.30;51.70
44863;DHT22;30597;49.628;10.850;2023-04-24T22:17:49;22.30;51.80
44863;DHT22;30597;49.628;10.850;2023-04-24T22:20:17;22.30;52.00
44863;DHT22;30597;49.628;10.850;2023-04-24T22:22:42;22.30;52.00
44863;DHT22;30597;49.628;10.850;2023-04-24T22:25:08;22.30;51.80
44863;DHT22;30597;49.628;10.850;2023-04-24T22:27:34;22.20;52.00
44863;DHT22;30597;49.628;10.850;2023-04-24T22:30:00;22.30;51.70
44863;DHT22;30597;49.628;10.850;2023-04-24T22:32:25;22.20;51.90
44863;DHT22;30597;49.628;10.850;2023-04-24T22:34:51;22.20;52.20
44863;DHT22;30597;49.628;10.850;2023-04-24T22:37:16;22.20;52.20
44863;DHT22;30597;49.628;10.850;2023-04-24T22:39:42;22.30;52.50
44863;DHT22;30597;49.628;10.850;2023-04-24T22:42:08;22.20;52.30
44863;DHT22;30597;49.628;10.850;2023-04-24T22:44:33;22.20;52.20
44863;DHT22;30597;49.628;10.850;2023-04-24T22:46:59;22.20;52.50
44863;DHT22;30597;49.628;10.850;2023-04-24T22:49:24;22.20;52.50
44863;DHT22;30597;49.628;10.850;2023-04-24T22:51:51;22.20;52.50
44863;DHT22;30597;49.628;10.850;2023-04-24T22:54:17;22.20;52.50
44863;DHT22;30597;49.628;10.850;2023-04-24T22:56:43;22.20;52.50
44863;DHT22;30597;49.628;10.850;2023-04-24T22:59:08;22.20;52.60
44863;DHT22;30597;49.628;10.850;2023-04-24T23:01:34;22.20;52.50
44863;DHT22;30597;49.628;10.850;2023-04-24T23:04:00;22.20;52.60
44863;DHT22;30597;49.628;10.850;2023-04-24T23:06:25;22.20;52.60
44863;DHT22;30597;49.628;10.850;2023-04-24T23:08:51;22.20;52.50
44863;DHT22;30597;49.628;10.850;2023-04-24T23:11:16;22.20;52.50
44863;DHT22;30597;49.628;10.850;2023-04-24T23:13:42;22.20;52.50
44863;DHT22;30597;49.628;10.850;2023-04-24T23:16:08;22.10;52.50
44863;DHT22;30597;49.628;10.850;2023-04-24T23:18:34;22.10;53.20
44863;DHT22;30597;49.628;10.850;2023-04-24T23:21:00;22.10;52.50
44863;DHT22;30597;49.628;10.850;2023-04-24T23:23:27;22.10;52.40
44863;DHT22;30597;49.628;10.850;2023-04-24T23:25:53;22.00;52.30
44863;DHT22;30597;49.628;10.850;2023-04-24T23:28:18;22.00;52.10
44863;DHT22;30597;49.628;10.850;2023-04-24T23:30:44;22.00;52.40
44863;DHT22;30597;49.628;10.850;2023-04-24T23:33:09;22.00;52.30
44863;DHT22;30597;49.628;10.850;2023-04-24T23:35:38;22.00;52.10
44863;DHT22;30597;49.628;10.850;2023-04-24T23:38:04;21.90;52.20
44863;DHT22;30597;49.628;10.850;2023-04-24T23:40:29;21.90;52.20
44863;DHT22;30597;49.628;10.850;2023-04-24T23:42:55;21.90;52.30
44863;DHT22;30597;49.628;10.850;2023-04-24T23:45:20;21.90;52.30
44863;DHT22;30597;49.628;10.850;2023-04-24T23:47:46;21.90;52.50
44863;DHT22;30597;49.628;10.850;2023-04-24T23:50:11;21.90;52.20
44863;DHT22;30597;49.628;10.850;2023-04-24T23:52:37;21.80;52.30
44863;DHT22;30597;49.628;10.850;2023-04-24T23:55:03;21.80;52.40
44863;DHT22;30597;49.628;10.850;2023-04-24T23:57:29;21.80;52.70
44863;DHT22;30597;49.628;10.850;2023-04-24T23:59:55;21.90;53.20
